createdAt,value
2019-03-05T00:01:00.784Z,9.60
2019-03-05T00:03:04.156Z,9.50
2019-03-05T00:05:07.086Z,9.60
2019-03-05T00:07:09.996Z,9.50
2019-03-05T00:09:12.956Z,9.60
2019-03-05T00:11:16.664Z,9.60
2019-03-05T00:13:20.360Z,9.60
2019-03-05T00:15:24.407Z,9.60
2019-03-05T00:17:27.369Z,9.60
2019-03-05T00:19:31.053Z,9.60
2019-03-05T00:21:34.789Z,9.60
2019-03-05T00:23:44.329Z,9.60
2019-03-05T00:25:47.243Z,9.60
2019-03-05T00:27:55.100Z,9.60
2019-03-05T00:30:16.396Z,9.60
2019-03-05T00:32:20.200Z,9.60
2019-03-05T00:34:29.535Z,9.60
2019-03-05T00:36:35.068Z,9.60
2019-03-05T00:38:45.609Z,9.50
2019-03-05T00:41:12.879Z,9.60
2019-03-05T00:43:17.528Z,9.50
2019-03-05T00:45:23.050Z,9.50
2019-03-05T00:47:33.280Z,9.50
2019-03-05T00:49:52.632Z,9.60
2019-03-05T00:51:56.267Z,9.50
2019-03-05T00:54:10.859Z,9.50
2019-03-05T00:56:15.377Z,9.50
2019-03-05T00:58:22.911Z,9.50
2019-03-05T01:00:48.648Z,9.60
2019-03-05T01:03:00.949Z,9.50
2019-03-05T01:05:16.471Z,9.50
2019-03-05T01:07:19.436Z,9.50
2019-03-05T01:09:22.361Z,9.50
2019-03-05T01:11:25.294Z,9.50
2019-03-05T01:13:28.244Z,9.50
2019-03-05T01:15:32.077Z,9.50
2019-03-05T01:17:35.017Z,9.50
2019-03-05T01:19:38.128Z,9.50
2019-03-05T01:21:41.828Z,9.60
2019-03-05T01:23:44.755Z,9.50
2019-03-05T01:25:47.703Z,9.60
2019-03-05T01:27:51.004Z,9.60
2019-03-05T01:29:53.942Z,9.60
2019-03-05T01:31:57.766Z,9.60
2019-03-05T01:34:02.252Z,9.60
2019-03-05T01:36:05.207Z,9.60
2019-03-05T01:38:08.268Z,9.60
2019-03-05T01:40:11.193Z,9.60
2019-03-05T01:42:14.319Z,9.60
2019-03-05T01:44:18.055Z,9.60
2019-03-05T01:46:21.003Z,9.50
2019-03-05T01:48:24.703Z,9.60
2019-03-05T01:50:28.424Z,9.60
2019-03-05T01:52:31.339Z,9.60
2019-03-05T01:54:34.471Z,9.60
2019-03-05T01:56:38.311Z,9.60
2019-03-05T01:58:41.227Z,9.50
2019-03-05T02:00:44.260Z,9.60
2019-03-05T02:02:47.288Z,9.60
2019-03-05T02:04:50.207Z,9.60
2019-03-05T02:06:53.196Z,9.60
2019-03-05T02:08:56.159Z,9.60
2019-03-05T02:10:59.840Z,9.60
2019-03-05T02:13:02.767Z,9.50
2019-03-05T02:15:05.858Z,9.60
2019-03-05T02:17:08.779Z,9.60
2019-03-05T02:19:24.422Z,9.60
2019-03-05T02:21:27.806Z,9.50
2019-03-05T02:23:31.500Z,9.60
2019-03-05T02:25:53.883Z,9.50
2019-03-05T02:27:56.842Z,9.60
2019-03-05T02:30:01.420Z,9.60
2019-03-05T02:32:06.055Z,9.50
2019-03-05T02:34:29.621Z,9.50
2019-03-05T02:36:52.981Z,9.50
2019-03-05T02:39:18.368Z,9.50
2019-03-05T02:41:34.495Z,9.50
2019-03-05T02:43:57.911Z,9.50
2019-03-05T02:46:07.568Z,9.50
2019-03-05T02:48:12.992Z,9.40
2019-03-05T02:50:53.989Z,9.40
2019-03-05T02:53:12.398Z,9.40
2019-03-05T02:55:19.779Z,9.40
2019-03-05T02:57:22.236Z,9.40
2019-03-05T02:59:25.194Z,9.40
2019-03-05T03:01:31.668Z,9.40
2019-03-05T03:03:35.333Z,9.40
2019-03-05T03:05:38.251Z,9.40
2019-03-05T03:07:41.190Z,9.40
2019-03-05T03:09:57.781Z,9.40
2019-03-05T03:12:00.796Z,9.40
2019-03-05T03:14:03.950Z,9.40
2019-03-05T03:16:06.886Z,9.40
2019-03-05T03:18:09.803Z,9.40
2019-03-05T03:20:12.738Z,9.40
2019-03-05T03:22:15.662Z,9.40
2019-03-05T03:24:18.584Z,9.40
2019-03-05T03:26:22.367Z,9.40
2019-03-05T03:28:26.054Z,9.40
2019-03-05T03:30:29.007Z,9.30
2019-03-05T03:32:32.059Z,9.30
2019-03-05T03:34:35.862Z,9.40
2019-03-05T03:36:39.539Z,9.40
2019-03-05T03:38:43.362Z,9.40
2019-03-05T03:40:47.035Z,9.40
2019-03-05T03:42:49.970Z,9.40
2019-03-05T03:44:52.926Z,9.30
2019-03-05T03:46:56.595Z,9.30
2019-03-05T03:48:59.611Z,9.30
2019-03-05T03:51:03.513Z,9.30
2019-03-05T03:53:07.212Z,9.30
2019-03-05T03:55:11.589Z,9.30
2019-03-05T03:57:14.542Z,9.30
2019-03-05T03:59:18.285Z,9.30
2019-03-05T04:01:22.729Z,9.30
2019-03-05T04:03:26.536Z,9.30
2019-03-05T04:05:30.219Z,9.30
2019-03-05T04:07:33.911Z,9.30
2019-03-05T04:09:38.372Z,9.30
2019-03-05T04:11:41.323Z,9.30
2019-03-05T04:13:45.027Z,9.30
2019-03-05T04:15:48.833Z,9.30
2019-03-05T04:17:52.511Z,9.30
2019-03-05T04:19:56.199Z,9.30
2019-03-05T04:21:59.137Z,9.30
2019-03-05T04:24:02.059Z,9.30
2019-03-05T04:26:04.995Z,9.30
2019-03-05T04:28:08.780Z,9.30
2019-03-05T04:30:13.205Z,9.30
2019-03-05T04:32:16.120Z,9.30
2019-03-05T04:34:19.163Z,9.30
2019-03-05T04:36:22.130Z,9.30
2019-03-05T04:38:25.042Z,9.30
2019-03-05T04:40:28.113Z,9.30
2019-03-05T04:42:31.812Z,9.20
2019-03-05T04:44:36.314Z,9.20
2019-03-05T04:46:40.159Z,9.20
2019-03-05T04:48:43.084Z,9.20
2019-03-05T04:51:03.627Z,9.20
2019-03-05T04:53:06.594Z,9.20
2019-03-05T04:55:10.293Z,9.10
2019-03-05T04:57:14.199Z,9.10
2019-03-05T04:59:17.980Z,9.10
2019-03-05T05:01:21.668Z,9.20
2019-03-05T05:03:25.237Z,9.10
2019-03-05T05:05:28.386Z,9.10
2019-03-05T05:07:31.312Z,9.10
2019-03-05T05:09:34.263Z,9.20
2019-03-05T05:11:37.174Z,9.10
2019-03-05T05:13:40.109Z,9.20
2019-03-05T05:15:43.914Z,9.20
2019-03-05T05:17:47.593Z,9.20
2019-03-05T05:19:50.512Z,9.20
2019-03-05T05:21:53.611Z,9.20
2019-03-05T05:23:56.561Z,9.20
2019-03-05T05:26:00.246Z,9.20
2019-03-05T05:28:03.244Z,9.10
2019-03-05T05:30:06.920Z,9.20
2019-03-05T05:32:10.611Z,9.10
2019-03-05T05:34:13.566Z,9.10
2019-03-05T05:36:16.487Z,9.20
2019-03-05T05:38:20.178Z,9.10
2019-03-05T05:40:26.387Z,9.20
2019-03-05T05:42:29.311Z,9.10
2019-03-05T05:44:32.448Z,9.20
2019-03-05T05:46:36.146Z,9.20
2019-03-05T05:48:39.766Z,9.20
2019-03-05T05:50:42.699Z,9.20
2019-03-05T05:52:45.639Z,9.20
2019-03-05T05:54:48.568Z,9.20
2019-03-05T05:56:52.282Z,9.20
2019-03-05T05:58:56.100Z,9.20
2019-03-05T06:00:59.169Z,9.20
2019-03-05T06:03:02.846Z,9.20
2019-03-05T06:05:05.990Z,9.20
2019-03-05T06:07:08.914Z,9.20
2019-03-05T06:09:11.855Z,9.20
2019-03-05T06:11:14.814Z,9.20
2019-03-05T06:13:17.739Z,9.30
2019-03-05T06:15:20.765Z,9.30
2019-03-05T06:17:23.725Z,9.20
2019-03-05T06:19:27.424Z,9.20
2019-03-05T06:21:30.349Z,9.20
2019-03-05T06:23:33.374Z,9.30
2019-03-05T06:25:36.919Z,9.30
2019-03-05T06:27:40.711Z,9.30
2019-03-05T06:29:44.411Z,9.30
2019-03-05T06:31:48.082Z,9.30
2019-03-05T06:33:51.011Z,9.30
2019-03-05T06:35:54.062Z,9.30
2019-03-05T06:37:57.747Z,9.40
2019-03-05T06:40:00.738Z,9.30
2019-03-05T06:42:03.626Z,9.40
2019-03-05T06:44:09.378Z,9.40
2019-03-05T06:46:10.278Z,9.40
2019-03-05T06:48:13.459Z,9.40
2019-03-05T06:50:17.260Z,9.40
2019-03-05T06:52:20.194Z,9.40
2019-03-05T06:54:23.891Z,9.40
2019-03-05T06:56:27.578Z,9.40
2019-03-05T06:58:31.269Z,9.40
2019-03-05T07:00:34.991Z,9.40
2019-03-05T07:02:38.794Z,9.40
2019-03-05T07:04:42.471Z,9.40
2019-03-05T07:06:59.322Z,9.40
2019-03-05T07:12:54.836Z,9.40
2019-03-05T07:22:49.580Z,9.40
2019-03-05T07:32:42.543Z,9.10
2019-03-05T07:52:43.023Z,8.70
2019-03-05T08:02:41.408Z,8.60
2019-03-05T08:12:50.734Z,8.60
2019-03-05T08:22:53.157Z,8.50
2019-03-05T08:40:38.635Z,9.10
2019-03-05T08:52:37.218Z,9.10
2019-03-05T09:02:48.043Z,9.10
2019-03-05T09:04:51.597Z,9.10
2019-03-05T09:12:38.159Z,9.10
2019-03-05T09:22:38.816Z,9.20
2019-03-05T09:32:38.165Z,9.10
2019-03-05T09:42:40.124Z,9.00
2019-03-05T09:44:53.196Z,8.90
2019-03-05T09:52:38.543Z,8.90
2019-03-05T10:02:37.655Z,9.00
2019-03-05T10:12:42.418Z,8.90
2019-03-05T10:22:39.730Z,8.90
2019-03-05T10:32:39.799Z,8.90
2019-03-05T10:42:37.714Z,8.90
2019-03-05T10:52:38.218Z,8.80
2019-03-05T11:02:40.101Z,8.70
2019-03-05T11:12:28.087Z,8.70
2019-03-05T11:14:31.784Z,8.80
2019-03-05T11:16:35.575Z,8.80
2019-03-05T11:18:39.254Z,8.90
2019-03-05T11:20:42.507Z,8.90
2019-03-05T11:22:45.432Z,9.00
2019-03-05T11:24:49.878Z,9.10
2019-03-05T11:26:53.595Z,9.30
2019-03-05T11:28:56.530Z,9.20
2019-03-05T11:30:59.484Z,9.30
2019-03-05T11:33:02.443Z,9.40
2019-03-05T11:35:05.471Z,9.40
2019-03-05T11:37:08.386Z,9.50
2019-03-05T11:39:12.249Z,9.60
2019-03-05T11:41:15.184Z,9.60
2019-03-05T11:43:20.181Z,9.70
2019-03-05T11:45:25.649Z,9.80
2019-03-05T11:47:28.572Z,9.80
2019-03-05T11:49:31.723Z,9.80
2019-03-05T11:51:34.667Z,9.80
2019-03-05T11:53:38.847Z,9.90
2019-03-05T11:55:42.216Z,9.90
2019-03-05T11:57:45.131Z,9.90
2019-03-05T11:59:48.283Z,9.90
2019-03-05T12:01:51.807Z,9.90
2019-03-05T12:03:55.627Z,9.90
2019-03-05T12:05:58.650Z,9.90
2019-03-05T12:08:03.095Z,9.90
2019-03-05T12:10:06.027Z,9.90
2019-03-05T12:12:18.887Z,9.90
2019-03-05T12:22:38.015Z,9.90
2019-03-05T12:32:40.437Z,9.30
2019-03-05T12:42:38.315Z,9.20
2019-03-05T12:52:38.690Z,9.10
2019-03-05T13:02:39.168Z,9.00
2019-03-05T13:12:40.196Z,8.90
2019-03-05T13:14:53.467Z,8.90
2019-03-05T13:22:42.565Z,9.00
2019-03-05T13:24:54.604Z,9.00
2019-03-05T13:32:39.984Z,9.00
2019-03-05T13:42:39.271Z,9.10
2019-03-05T13:52:42.474Z,9.10
2019-03-05T13:54:49.696Z,9.10
2019-03-05T13:57:05.036Z,9.20
2019-03-05T13:59:33.416Z,9.30
2019-03-05T14:01:37.135Z,9.40
2019-03-05T14:03:40.910Z,9.40
2019-03-05T14:06:02.315Z,9.50
2019-03-05T14:08:17.401Z,9.50
2019-03-05T14:10:20.374Z,9.60
2019-03-05T14:12:23.318Z,9.70
2019-03-05T14:14:26.362Z,9.80
2019-03-05T14:16:29.286Z,9.80
2019-03-05T14:18:32.331Z,9.90
2019-03-05T14:20:35.358Z,9.90
2019-03-05T14:22:38.988Z,10.00
2019-03-05T14:24:42.679Z,10.10
2019-03-05T14:26:46.488Z,10.10
2019-03-05T14:28:50.172Z,10.20
2019-03-05T14:30:53.111Z,10.10
2019-03-05T14:32:56.076Z,10.20
2019-03-05T14:34:58.996Z,10.20
2019-03-05T14:37:01.972Z,10.30
2019-03-05T14:39:05.025Z,10.30
2019-03-05T14:41:08.097Z,10.40
2019-03-05T14:43:11.819Z,10.40
2019-03-05T14:45:16.525Z,10.40
2019-03-05T14:47:19.425Z,10.50
2019-03-05T14:49:22.358Z,10.50
2019-03-05T14:51:25.354Z,10.50
2019-03-05T14:53:28.335Z,10.50
2019-03-05T14:55:31.286Z,10.60
2019-03-05T14:57:34.342Z,10.70
2019-03-05T14:59:37.277Z,10.70
2019-03-05T15:01:40.204Z,10.80
2019-03-05T15:03:43.147Z,10.80
2019-03-05T15:05:46.996Z,10.90
2019-03-05T15:07:49.853Z,10.90
2019-03-05T15:09:52.812Z,11.00
2019-03-05T15:11:55.846Z,11.00
2019-03-05T15:13:58.794Z,11.00
2019-03-05T15:16:02.489Z,11.10
2019-03-05T15:18:06.294Z,11.10
2019-03-05T15:20:09.991Z,11.10
2019-03-05T15:22:13.751Z,11.10
2019-03-05T15:24:16.721Z,11.10
2019-03-05T15:26:19.719Z,11.10
2019-03-05T15:28:22.665Z,11.20
2019-03-05T15:30:28.630Z,11.20
2019-03-05T15:32:28.556Z,11.10
2019-03-05T15:34:31.615Z,11.20
2019-03-05T15:36:35.493Z,11.20
2019-03-05T15:38:39.327Z,11.10
2019-03-05T15:40:42.273Z,11.10
2019-03-05T15:42:46.002Z,11.20
2019-03-05T15:44:49.704Z,11.20
2019-03-05T15:46:52.632Z,11.20
2019-03-05T15:48:55.680Z,11.20
2019-03-05T15:50:58.585Z,11.20
2019-03-05T15:53:01.584Z,11.20
2019-03-05T15:55:04.844Z,11.20
2019-03-05T15:57:07.884Z,11.20
2019-03-05T15:59:11.614Z,11.20
2019-03-05T16:01:22.037Z,11.20
2019-03-05T16:03:18.304Z,11.20
2019-03-05T16:05:22.087Z,11.20
2019-03-05T16:07:24.949Z,11.20
2019-03-05T16:09:28.668Z,11.20
2019-03-05T16:11:34.118Z,11.20
2019-03-05T16:13:35.311Z,11.20
2019-03-05T16:15:38.268Z,11.20
2019-03-05T16:17:41.298Z,11.20
2019-03-05T16:19:44.999Z,11.20
2019-03-05T16:21:48.085Z,11.20
2019-03-05T16:23:51.783Z,11.20
2019-03-05T16:25:55.480Z,11.20
2019-03-05T16:28:02.259Z,11.20
2019-03-05T16:30:02.148Z,11.20
2019-03-05T16:32:06.640Z,11.20
2019-03-05T16:34:13.127Z,11.20
2019-03-05T16:36:32.079Z,11.10
2019-03-05T16:38:55.130Z,11.10
2019-03-05T16:41:16.991Z,11.00
2019-03-05T16:43:34.334Z,11.00
2019-03-05T16:45:49.031Z,10.90
2019-03-05T16:47:57.742Z,10.90
2019-03-05T16:50:16.279Z,10.90
2019-03-05T16:52:21.809Z,10.80
2019-03-05T16:54:25.587Z,10.80
2019-03-05T16:56:31.948Z,10.80
2019-03-05T16:58:38.606Z,10.70
2019-03-05T17:00:49.063Z,10.70
2019-03-05T17:02:48.332Z,10.70
2019-03-05T17:04:56.907Z,10.70
2019-03-05T17:07:11.042Z,10.60
2019-03-05T17:09:14.781Z,10.60
2019-03-05T17:11:17.712Z,10.60
2019-03-05T17:13:20.671Z,10.50
2019-03-05T17:15:24.359Z,10.60
2019-03-05T17:17:27.281Z,10.50
2019-03-05T17:19:30.307Z,10.60
2019-03-05T17:21:33.253Z,10.50
2019-03-05T17:23:36.186Z,10.50
2019-03-05T17:25:39.146Z,10.50
2019-03-05T17:27:42.895Z,10.50
2019-03-05T17:29:46.596Z,10.50
2019-03-05T17:31:50.319Z,10.50
2019-03-05T17:33:53.235Z,10.50
2019-03-05T17:35:56.145Z,10.50
2019-03-05T17:37:59.884Z,10.40
2019-03-05T17:40:02.799Z,10.40
2019-03-05T17:42:05.825Z,10.40
2019-03-05T17:44:09.550Z,10.40
2019-03-05T17:46:12.471Z,10.30
2019-03-05T17:48:15.410Z,10.30
2019-03-05T17:50:18.893Z,10.20
2019-03-05T17:52:21.827Z,10.20
2019-03-05T17:54:24.768Z,10.20
2019-03-05T17:56:27.833Z,10.10
2019-03-05T17:58:30.783Z,10.20
2019-03-05T18:00:33.723Z,10.10
2019-03-05T18:02:36.687Z,10.20
2019-03-05T18:04:40.366Z,10.20
2019-03-05T18:06:44.827Z,10.10
2019-03-05T18:08:47.795Z,10.20
2019-03-05T18:10:50.715Z,10.10
2019-03-05T18:12:53.815Z,10.10
2019-03-05T18:14:56.750Z,10.00
2019-03-05T18:16:59.686Z,10.00
2019-03-05T18:19:02.900Z,9.90
2019-03-05T18:21:06.622Z,9.90
2019-03-05T18:23:09.539Z,9.90
2019-03-05T18:25:12.480Z,9.80
2019-03-05T18:27:15.422Z,9.80
2019-03-05T18:29:19.111Z,9.70
2019-03-05T18:31:22.078Z,9.70
2019-03-05T18:33:25.016Z,9.70
2019-03-05T18:35:28.687Z,9.60
2019-03-05T18:37:32.513Z,9.60
2019-03-05T18:39:35.906Z,9.50
2019-03-05T18:41:38.950Z,9.50
2019-03-05T18:43:41.974Z,9.50
2019-03-05T18:45:44.902Z,9.50
2019-03-05T18:47:47.890Z,9.50
2019-03-05T18:49:51.742Z,9.50
2019-03-05T18:51:55.420Z,9.50
2019-03-05T18:53:58.532Z,9.40
2019-03-05T18:56:02.499Z,9.40
2019-03-05T18:58:06.505Z,9.40
2019-03-05T19:00:12.948Z,9.40
2019-03-05T19:02:15.884Z,9.40
2019-03-05T19:04:19.771Z,9.40
2019-03-05T19:06:23.697Z,9.40
2019-03-05T19:08:27.020Z,9.40
2019-03-05T19:10:30.253Z,9.40
2019-03-05T19:12:34.183Z,9.30
2019-03-05T19:14:37.209Z,9.30
2019-03-05T19:16:40.778Z,9.30
2019-03-05T19:18:44.054Z,9.30
2019-03-05T19:20:47.213Z,9.30
2019-03-05T19:22:50.973Z,9.20
2019-03-05T19:24:53.892Z,9.20
2019-03-05T19:26:56.819Z,9.20
2019-03-05T19:29:00.027Z,9.20
2019-03-05T19:31:02.948Z,9.20
2019-03-05T19:33:05.871Z,9.20
2019-03-05T19:35:08.815Z,9.20
2019-03-05T19:37:12.511Z,9.10
2019-03-05T19:39:15.438Z,9.10
2019-03-05T19:41:18.525Z,9.10
2019-03-05T19:43:21.455Z,9.10
2019-03-05T19:45:24.473Z,9.10
2019-03-05T19:47:28.186Z,9.10
2019-03-05T19:49:31.196Z,9.00
2019-03-05T19:51:34.274Z,9.00
2019-03-05T19:53:37.529Z,9.00
2019-03-05T19:55:41.465Z,8.90
2019-03-05T19:57:44.630Z,8.90
2019-03-05T19:59:47.916Z,8.90
2019-03-05T20:01:51.306Z,8.90
2019-03-05T20:03:54.597Z,8.80
2019-03-05T20:05:57.556Z,8.80
2019-03-05T20:08:02.097Z,8.80
2019-03-05T20:10:06.313Z,8.80
2019-03-05T20:12:09.327Z,8.80
2019-03-05T20:14:12.365Z,8.80
2019-03-05T20:16:16.095Z,8.70
2019-03-05T20:18:19.162Z,8.70
2019-03-05T20:20:22.884Z,8.60
2019-03-05T20:22:25.950Z,8.60
2019-03-05T20:24:29.695Z,8.70
2019-03-05T20:26:32.764Z,8.70
2019-03-05T20:28:35.951Z,8.70
2019-03-05T20:30:38.708Z,8.70
2019-03-05T20:32:41.740Z,8.70
2019-03-05T20:34:46.599Z,8.70
2019-03-05T20:36:47.831Z,8.80
2019-03-05T20:38:51.727Z,8.80
2019-03-05T20:40:54.660Z,8.80
2019-03-05T20:42:57.596Z,8.80
2019-03-05T20:45:00.781Z,8.90
2019-03-05T20:47:03.730Z,8.90
2019-03-05T20:49:06.655Z,9.00
2019-03-05T20:51:10.478Z,9.00
2019-03-05T20:53:13.439Z,9.00
2019-03-05T20:55:17.279Z,9.00
2019-03-05T20:57:20.348Z,9.00
2019-03-05T20:59:23.357Z,9.10
2019-03-05T21:01:26.535Z,9.10
2019-03-05T21:03:29.550Z,9.10
2019-03-05T21:05:37.065Z,9.10
2019-03-05T21:07:40.044Z,9.10
2019-03-05T21:09:43.895Z,9.10
2019-03-05T21:11:47.557Z,9.10
2019-03-05T21:13:50.659Z,9.10
2019-03-05T21:15:53.602Z,9.10
2019-03-05T21:17:56.545Z,9.10
2019-03-05T21:19:59.502Z,9.10
2019-03-05T21:22:03.194Z,9.10
2019-03-05T21:24:06.935Z,9.10
2019-03-05T21:26:09.895Z,9.10
2019-03-05T21:28:12.826Z,9.20
2019-03-05T21:30:19.431Z,9.20
2019-03-05T21:32:23.245Z,9.20
2019-03-05T21:34:26.954Z,9.20
2019-03-05T21:36:30.849Z,9.20
2019-03-05T21:38:33.783Z,9.30
2019-03-05T21:40:37.496Z,9.30
2019-03-05T21:42:40.566Z,9.30
2019-03-05T21:44:44.252Z,9.30
2019-03-05T21:46:47.174Z,9.30
2019-03-05T21:48:51.000Z,9.40
2019-03-05T21:50:54.802Z,9.40
2019-03-05T21:52:58.500Z,9.40
2019-03-05T21:55:02.227Z,9.40
2019-03-05T21:57:05.157Z,9.40
2019-03-05T21:59:08.169Z,9.40
2019-03-05T22:01:11.898Z,9.40
2019-03-05T22:03:14.823Z,9.40
2019-03-05T22:05:17.756Z,9.40
2019-03-05T22:07:20.818Z,9.40
2019-03-05T22:09:24.530Z,9.50
2019-03-05T22:11:27.460Z,9.50
2019-03-05T22:13:30.418Z,9.50
2019-03-05T22:15:33.356Z,9.60
2019-03-05T22:17:37.051Z,9.60
2019-03-05T22:19:40.012Z,9.50
2019-03-05T22:21:43.032Z,9.60
2019-03-05T22:23:45.982Z,9.50
2019-03-05T22:25:48.927Z,9.50
2019-03-05T22:27:51.852Z,9.60
2019-03-05T22:29:54.899Z,9.50
2019-03-05T22:31:57.859Z,9.50
2019-03-05T22:34:01.530Z,9.60
2019-03-05T22:36:05.338Z,9.60
2019-03-05T22:38:08.433Z,9.60
2019-03-05T22:40:11.399Z,9.60
2019-03-05T22:42:15.218Z,9.60
2019-03-05T22:44:18.160Z,9.60
2019-03-05T22:46:21.115Z,9.60
2019-03-05T22:48:24.040Z,9.60
2019-03-05T22:50:27.750Z,9.60
2019-03-05T22:52:31.853Z,9.60
2019-03-05T22:54:35.555Z,9.50
2019-03-05T22:56:38.470Z,9.50
2019-03-05T22:58:41.462Z,9.60
2019-03-05T23:00:48.311Z,9.60
2019-03-05T23:02:51.238Z,9.70
2019-03-05T23:04:54.585Z,9.70
2019-03-05T23:06:58.255Z,9.70
2019-03-05T23:09:01.202Z,9.70
2019-03-05T23:11:04.241Z,9.70
2019-03-05T23:13:07.190Z,9.70
2019-03-05T23:15:10.115Z,9.70
2019-03-05T23:17:13.302Z,9.70
2019-03-05T23:19:16.223Z,9.70
2019-03-05T23:21:19.167Z,9.70
2019-03-05T23:23:22.081Z,9.70
2019-03-05T23:25:25.083Z,9.70
2019-03-05T23:27:28.018Z,9.70
2019-03-05T23:29:31.437Z,9.70
2019-03-05T23:31:34.361Z,9.70
2019-03-05T23:33:38.168Z,9.70
2019-03-05T23:35:41.090Z,9.70
2019-03-05T23:37:44.025Z,9.70
2019-03-05T23:39:47.860Z,9.70
2019-03-05T23:41:51.664Z,9.70
2019-03-05T23:43:55.342Z,9.70
2019-03-05T23:45:58.279Z,9.70
2019-03-05T23:48:01.194Z,9.70
2019-03-05T23:50:05.140Z,9.70
2019-03-05T23:52:08.219Z,9.70
2019-03-05T23:54:11.142Z,9.70
2019-03-05T23:56:14.195Z,9.70
2019-03-05T23:58:17.961Z,9.70
